Station: Gove Airport  

  Atmospheric Gas Attenuation - ITU Rec 676-11   ----------------- dB/100km -----------------
Date Time Temp RH % AH g/m3 Dew Point Wind Direction Speed kph Gust kph Barometer mB Rainfall Since 9am 24GHz 47GHz 76GHz 122GHz 134GHz 241GHz
04/09 17:50 25.7 76 18.2 21.1 15 19 1014.8 0 39.2 38.3 72.9 192.7 210.8 732.2
04/09 17:40 25.8 77 18.54 21.5 17 24 1014.8 0 39.9 38.9 74.3 196.6 215.6 749.0
04/09 17:30 25.9 76 18.4 21.3 17 24 1014.8 0 39.6 38.6 73.6 194.6 213.2 740.7
04/09 17:20 26.2 74 18.22 21.2 19 26 1014.7 0 39.2 38.1 72.5 191.7 209.7 728.4
04/09 17:10 27 72 18.53 21.5 17 26 1014.6 0 39.7 38.3 73.1 193.4 212.0 736.7
04/09 17:00 27.4 71 18.68 21.7 17 24 1014.5 0 40.0 38.4 73.4 194.2 213.1 740.5
04/09 16:50 26.9 72 18.43 21.4 19 28 1014.4 0 39.5 38.1 72.7 192.4 210.8 732.4
04/09 16:40 27.4 71 18.68 21.7 17 20 1014.3 0 40.0 38.4 73.4 194.1 213.1 740.4
04/09 16:30 27.2 68 17.7 20.8 20 30 1014.2 0 38.0 36.7 69.2 182.9 199.3 692.3
04/09 16:20 27.1 70 18.12 21.2 19 28 1014.1 0 38.9 37.5 71.1 188.1 205.6 714.4
04/09 16:10 27.7 69 18.46 21.5 19 24 1014.1 0 39.5 37.8 72.1 190.7 209.0 726.1
04/09 16:00 27.3 69 18.06 21.1 19 24 1014 0 38.7 37.3 70.7 186.9 204.2 709.5
04/09 15:50 27.4 71 18.68 21.7 22 35 1014 0 40.0 38.4 73.4 194.1 213.0 740.2
04/09 15:40 28.4 66 18.35 21.4 17 30 1014 0 39.2 37.3 71.0 187.7 205.4 713.9
04/09 15:30 27.5 68 17.99 21.1 19 26 1014.1 0 38.6 37.1 70.2 185.6 202.7 704.1
04/09 15:20 28.4 65 18.07 21.2 19 26 1014.1 0 38.6 36.8 69.7 184.4 201.4 699.9
04/09 15:10 29.1 63 18.2 21.3 20 30 1014.2 0 38.8 36.8 69.7 184.3 201.4 700.1
04/09 15:00 27.7 65 17.39 20.5 20 30 1014.3 0 37.3 35.9 67.4 178.1 193.5 672.4
04/09 14:50 28 65 17.68 20.8 22 32 1014.3 0 37.9 36.3 68.4 180.8 196.9 684.2
04/09 14:40 28.2 65 17.87 21 22 28 1014.3 0 38.2 36.6 69.0 182.6 199.1 691.8
04/09 14:30 29.1 60 17.33 20.5 20 28 1014.4 0 37.0 35.3 65.9 174.3 189.2 657.4
04/09 14:20 29.1 64 18.49 21.6 20 32 1014.5 0 39.5 37.3 71.0 187.7 205.6 714.7
04/09 14:10 29.1 63 18.2 21.3 20 33 1014.6 0 38.8 36.8 69.7 184.3 201.5 700.3
04/09 14:00 28.6 62 17.43 20.6 22 30 1014.8 0 37.3 35.6 66.8 176.6 191.9 666.8
04/09 13:50 28.4 65 18.07 21.2 20 33 1014.8 0 38.6 36.9 69.8 184.5 201.5 700.3
04/09 13:40 28.9 61 17.43 20.6 24 28 1014.9 0 37.2 35.5 66.5 175.9 191.2 664.2
04/09 13:30 29.4 61 17.91 21.1 20 26 1015 0 38.2 36.2 68.2 180.3 196.7 683.5
04/09 13:20 28.3 63 17.42 20.6 20 28 1015.1 0 37.3 35.8 67.0 177.2 192.5 669.0
04/09 13:10 29.5 60 17.71 20.9 19 30 1015.3 0 37.8 35.8 67.3 177.8 193.6 672.9
04/09 13:00 29.1 62 17.91 21.1 20 28 1015.4 0 38.2 36.3 68.5 181.1 197.5 686.3
04/09 12:50 28.7 63 17.8 21 20 30 1015.5 0 38.0 36.3 68.4 180.7 197.0 684.5
04/09 12:40 29.7 60 17.91 21.1 19 28 1015.7 0 38.2 36.1 68.0 179.7 196.0 681.2
04/09 12:30 29.1 63 18.2 21.3 17 26 1015.8 0 38.8 36.8 69.8 184.5 201.7 700.9
04/09 12:20 28.4 63 17.51 20.7 19 28 1016.1 0 37.5 35.9 67.4 178.2 193.7 673.1
04/09 12:10 28.3 63 17.42 20.6 19 28 1016.3 0 37.3 35.8 67.1 177.4 192.7 669.6
04/09 12:00 28.8 65 18.47 21.6 20 26 1016.4 0 39.4 37.5 71.3 188.5 206.4 717.4
04/09 11:50 30 60 18.2 21.4 19 26 1016.6 0 38.7 36.5 69.0 182.5 199.4 693.1
04/09 11:40 28 66 17.95 21.1 20 28 1016.7 0 38.4 36.9 69.7 184.3 201.1 698.8
04/09 11:30 27.9 66 17.85 21 20 28 1016.9 0 38.2 36.8 69.4 183.4 200.0 694.8
04/09 11:20 27.6 68 18.09 21.2 19 26 1017.1 0 38.7 37.3 70.7 187.0 204.3 709.8
04/09 11:10 28.1 66 18.05 21.1 19 30 1017.3 0 38.6 37.1 70.1 185.3 202.4 703.2
04/09 11:00 28.3 65 17.97 21.1 17 26 1017.4 0 38.4 36.8 69.6 183.9 200.7 697.4
04/09 10:50 27.8 66 17.75 20.9 17 26 1017.5 0 38.0 36.7 69.1 182.6 198.9 691.0
04/09 10:40 28.2 66 18.15 21.2 17 24 1017.7 0 38.8 37.2 70.5 186.3 203.6 707.5
04/09 10:30 28.2 68 18.7 21.7 17 24 1017.8 0 40.0 38.2 72.9 192.9 211.6 735.5
04/09 10:20 27.4 68 17.89 21 19 26 1017.9 0 38.3 37.1 70.1 185.2 202.0 701.9
04/09 10:10 27.4 69 18.16 21.2 20 28 1018 0 38.9 37.6 71.3 188.5 206.0 715.6
04/09 10:00 27.4 69 18.16 21.2 20 28 1017.9 0 38.9 37.6 71.3 188.4 206.0 715.6
04/09 09:50 27.5 68 17.99 21.1 17 24 1017.8 0 38.5 37.2 70.4 186.2 203.2 706.0
04/09 09:40 28 65 17.68 20.8 17 30 1017.9 0 37.8 36.5 68.6 181.3 197.4 685.9
04/09 09:30 27.4 69 18.16 21.2 15 24 1017.9 0 38.9 37.6 71.3 188.4 206.0 715.6
04/09 09:20 27 70 18.02 21.1 15 20 1017.8 0 38.7 37.5 71.0 187.7 205.0 712.1
04/09 09:10 27.6 69 18.36 21.4 13 19 1017.7 0 39.3 37.8 72.0 190.3 208.3 723.8
04/09 09:00 27.2 69 17.96 21 17 22 1017.7 0 38.5 37.3 70.5 186.5 203.5 707.1
04/09 08:50 27.2 70 18.22 21.2 15 20 1017.6 0 39.1 37.8 71.7 189.6 207.3 720.4
04/09 08:40 26.5 72 18.02 21 17 22 1017.6 0 38.7 37.7 71.5 188.9 206.3 716.7
04/09 08:30 26.2 76 18.71 21.6 15 19 1017.5 0 40.2 39.1 74.9 198.1 217.4 755.4
04/09 08:20 25.9 75 18.16 21.1 13 17 1017.5 0 39.1 38.2 72.7 192.1 210.0 729.6
04/09 08:10 25.7 78 18.67 21.6 11 15 1017.5 0 40.2 39.3 75.2 198.9 218.3 758.3
04/09 08:00 25.3 79 18.49 21.4 11 13 1017.4 0 39.8 39.1 74.8 197.7 216.7 752.7
04/09 07:50 24.7 82 18.56 21.4 9 13 1017.4 0 40.0 39.5 75.7 200.1 219.5 762.4
04/09 07:40 23.8 88 18.93 21.7 6 9 1017.3 0 40.9 40.7 78.4 207.2 228.0 791.6
04/09 07:30 22.6 95 19.08 21.8 0 7 1017.2 0 41.4 41.5 80.3 212.5 234.1 812.7
04/09 07:20 21.9 97 18.72 21.4 0 0 1017.1 0 40.7 41.2 79.3 209.7 230.5 800.1
04/09 07:10 21.4 97 18.18 20.9 0 0 1017.1 0 39.6 40.4 77.2 204.1 223.3 775.2
04/09 07:00 20.9 97 17.66 20.4 0 0 1016.9 0 38.5 39.6 75.1 198.6 216.5 751.4
04/09 06:50 20.3 96 16.88 19.6 0 0 1016.8 0 36.9 38.3 72.0 190.1 205.9 714.4
04/09 06:40 20.2 96 16.78 19.5 0 0 1016.7 0 36.7 38.2 71.6 189.1 204.6 709.9
04/09 06:30 19.8 96 16.4 19.1 0 0 1016.6 0 35.9 37.6 70.1 185.3 199.7 692.9
04/09 06:20 20.1 96 16.69 19.4 0 0 1016.5 0 36.5 38.1 71.2 188.2 203.4 705.8
04/09 06:10 20 96 16.59 19.3 0 0 1016.4 0 36.3 37.9 70.8 187.1 202.1 701.2
04/09 06:00 19.8 96 16.4 19.1 0 0 1016.2 0 35.9 37.6 70.1 185.2 199.7 692.7
04/09 05:50 20 96 16.59 19.3 0 0 1016 0 36.3 37.9 70.8 187.1 202.1 701.0
04/09 05:40 19.7 96 16.3 19 0 0 1015.9 0 35.7 37.5 69.7 184.1 198.4 688.0
04/09 05:30 19.8 96 16.4 19.1 0 0 1015.8 0 35.9 37.6 70.1 185.1 199.6 692.5
04/09 05:20 19.8 96 16.4 19.1 0 0 1015.7 0 35.9 37.6 70.1 185.1 199.6 692.4
04/09 05:10 19.9 96 16.49 19.2 0 0 1015.6 0 36.1 37.7 70.4 186.0 200.7 696.4
04/09 05:00 20 96 16.59 19.3 0 0 1015.5 0 36.3 37.9 70.8 187.0 202.0 700.8
04/09 04:50 19.8 96 16.4 19.1 0 0 1015.5 0 35.9 37.6 70.0 185.1 199.6 692.3
04/09 04:40 19.9 96 16.49 19.2 0 0 1015.4 0 36.1 37.7 70.4 186.0 200.7 696.3
04/09 04:30 20.1 96 16.69 19.4 0 0 1015.3 0 36.5 38.0 71.1 188.0 203.3 705.2
04/09 04:20 20 96 16.59 19.3 0 0 1015.3 0 36.3 37.9 70.8 187.0 202.0 700.7
04/09 04:10 19.9 96 16.49 19.2 0 0 1015.3 0 36.1 37.7 70.4 186.0 200.7 696.2
04/09 04:00 20 96 16.59 19.3 0 0 1015.5 0 36.3 37.9 70.8 187.0 202.0 700.8
04/09 03:50 20.1 96 16.69 19.4 0 0 1015.5 0 36.5 38.0 71.2 188.0 203.3 705.3
04/09 03:40 20.4 97 17.16 19.9 0 0 1015.4 0 37.5 38.8 73.1 193.3 209.8 728.1
04/09 03:30 20.1 96 16.69 19.4 0 0 1015.4 0 36.5 38.0 71.1 188.0 203.3 705.3
04/09 03:20 20.2 96 16.78 19.5 0 0 1015.5 0 36.7 38.1 71.5 188.9 204.4 709.3
04/09 03:10 20 96 16.59 19.3 0 0 1015.5 0 36.3 37.9 70.8 187.0 202.0 700.8
04/09 03:00 19.9 96 16.49 19.2 0 0 1015.5 0 36.1 37.7 70.4 186.0 200.7 696.3
04/09 02:50 20 96 16.59 19.3 0 0 1015.4 0 36.3 37.9 70.8 187.0 202.0 700.8
04/09 02:40 20 96 16.59 19.3 4 6 1015.4 0 36.3 37.9 70.8 187.0 202.0 700.8
04/09 02:30 20 96 16.59 19.3 6 7 1015.5 0 36.3 37.9 70.8 187.0 202.0 700.8
04/09 02:20 20.1 96 16.69 19.4 4 6 1015.5 0 36.5 38.0 71.2 188.0 203.3 705.3
04/09 02:10 20.2 96 16.78 19.5 4 7 1015.5 0 36.7 38.1 71.5 188.9 204.4 709.3
04/09 02:00 20 95 16.42 19.2 0 0 1015.5 0 35.9 37.5 70.0 184.9 199.4 691.6
04/09 01:50 19.9 95 16.32 19.1 0 0 1015.5 0 35.7 37.4 69.6 183.8 198.1 687.1
04/09 01:40 20.1 95 16.51 19.3 0 0 1015.6 0 36.1 37.7 70.3 185.8 200.5 695.6
04/09 01:30 20.2 95 16.61 19.4 0 0 1015.8 0 36.3 37.8 70.7 186.8 201.8 700.2
04/09 01:20 20.3 95 16.71 19.5 0 0 1015.9 0 36.5 38.0 71.1 187.8 203.1 704.7

Last Refresh: 04-Sep-2026 17:58:30

Bureau of Meteorology